createdAt,value
2022-08-17T00:01:00.626Z,19.10
2022-08-17T00:02:21.252Z,19.12
2022-08-17T00:03:40.904Z,19.10
2022-08-17T00:04:48.432Z,19.09
2022-08-17T00:06:08.790Z,19.09
2022-08-17T00:07:11.799Z,19.08
2022-08-17T00:08:16.796Z,19.14
2022-08-17T00:09:19.976Z,19.09
2022-08-17T00:10:26.897Z,19.01
2022-08-17T00:11:40.246Z,19.10
2022-08-17T00:12:46.819Z,19.25
2022-08-17T00:13:55.142Z,19.16
2022-08-17T00:14:59.332Z,19.26
2022-08-17T00:16:06.855Z,19.43
2022-08-17T00:17:09.986Z,19.49
2022-08-17T00:19:06.241Z,19.50
2022-08-17T00:19:36.964Z,19.46
2022-08-17T00:20:40.018Z,19.45
2022-08-17T00:22:32.711Z,19.38
2022-08-17T00:23:17.421Z,19.37
2022-08-17T00:24:20.685Z,19.37
2022-08-17T00:25:23.678Z,19.12
2022-08-17T00:26:43.755Z,19.00
2022-08-17T00:27:51.650Z,19.02
2022-08-17T00:28:57.151Z,19.10
2022-08-17T00:30:00.097Z,19.21
2022-08-17T00:31:03.009Z,19.15
2022-08-17T00:33:11.806Z,19.15
2022-08-17T00:33:31.738Z,19.26
2022-08-17T00:34:37.771Z,19.21
2022-08-17T00:35:41.363Z,19.23
2022-08-17T00:36:44.308Z,19.18
2022-08-17T00:37:47.281Z,19.10
2022-08-17T00:38:51.579Z,19.07
2022-08-17T00:39:58.024Z,19.04
2022-08-17T00:41:14.066Z,18.97
2022-08-17T00:42:21.830Z,19.13
2022-08-17T00:43:42.308Z,19.13
2022-08-17T00:44:46.466Z,19.03
2022-08-17T00:45:50.205Z,19.03
2022-08-17T00:46:53.256Z,19.13
2022-08-17T00:47:56.151Z,19.09
2022-08-17T00:49:00.327Z,19.05
2022-08-17T00:50:05.514Z,19.04
2022-08-17T00:51:20.716Z,18.95
2022-08-17T00:52:28.936Z,18.99
2022-08-17T00:53:37.829Z,19.01
2022-08-17T00:54:43.740Z,19.11
2022-08-17T00:55:47.583Z,19.20
2022-08-17T00:56:58.936Z,19.20
2022-08-17T00:58:05.531Z,19.31
2022-08-17T00:59:12.634Z,19.41
2022-08-17T01:00:28.411Z,19.44
2022-08-17T01:01:32.986Z,19.35
2022-08-17T01:02:43.418Z,19.23
2022-08-17T01:03:46.422Z,19.20
2022-08-17T01:04:53.212Z,19.03
2022-08-17T01:05:59.123Z,19.06
2022-08-17T01:07:05.718Z,19.01
2022-08-17T01:08:13.592Z,19.01
2022-08-17T01:09:18.529Z,18.99
2022-08-17T01:10:59.690Z,18.91
2022-08-17T01:11:53.962Z,18.87
2022-08-17T01:12:57.083Z,18.84
2022-08-17T01:14:00.201Z,18.88
2022-08-17T01:15:07.041Z,18.86
2022-08-17T01:16:13.733Z,18.86
2022-08-17T01:17:17.019Z,18.85
2022-08-17T01:18:22.512Z,18.82
2022-08-17T01:19:31.323Z,18.81
2022-08-17T01:20:43.136Z,18.81
2022-08-17T01:22:09.411Z,18.74
2022-08-17T01:23:12.336Z,18.85
2022-08-17T01:24:24.071Z,18.87
2022-08-17T01:25:28.790Z,18.81
2022-08-17T01:26:33.497Z,18.76
2022-08-17T01:27:37.533Z,18.77
2022-08-17T01:28:54.807Z,18.81
2022-08-17T01:30:03.706Z,18.82
2022-08-17T01:31:09.080Z,19.04
2022-08-17T01:32:13.193Z,19.06
2022-08-17T01:33:16.322Z,19.12
2022-08-17T01:34:20.926Z,19.12
2022-08-17T01:35:23.991Z,19.13
2022-08-17T01:36:28.435Z,19.07
2022-08-17T01:37:41.218Z,19.11
2022-08-17T01:38:45.048Z,19.09
2022-08-17T01:39:54.185Z,19.08
2022-08-17T01:41:06.709Z,19.06
2022-08-17T01:42:25.260Z,19.11
2022-08-17T01:43:41.557Z,19.06
2022-08-17T01:44:44.674Z,19.09
2022-08-17T01:46:03.863Z,19.17
2022-08-17T01:47:07.007Z,19.15
2022-08-17T01:48:10.959Z,19.20
2022-08-17T01:49:13.997Z,19.26
2022-08-17T01:50:23.922Z,19.29
2022-08-17T01:51:33.490Z,19.23
2022-08-17T01:52:36.539Z,19.23
2022-08-17T01:53:45.757Z,19.33
2022-08-17T01:54:51.678Z,19.30
2022-08-17T01:55:59.384Z,19.26
2022-08-17T01:57:03.046Z,19.10
2022-08-17T01:58:10.293Z,19.02
2022-08-17T01:59:13.535Z,18.83
2022-08-17T02:00:18.830Z,18.73
2022-08-17T02:01:25.157Z,18.77
2022-08-17T02:02:31.224Z,18.87
2022-08-17T02:03:36.805Z,18.77
2022-08-17T02:04:39.761Z,18.80
2022-08-17T02:05:42.832Z,18.92
2022-08-17T02:06:53.090Z,18.95
2022-08-17T02:08:00.529Z,18.90
2022-08-17T02:09:05.479Z,18.79
2022-08-17T02:10:16.746Z,18.91
2022-08-17T02:11:23.449Z,18.93
2022-08-17T02:12:39.236Z,19.01
2022-08-17T02:13:48.848Z,18.80
2022-08-17T02:15:01.032Z,18.79
2022-08-17T02:16:04.726Z,18.89
2022-08-17T02:17:07.763Z,18.68
2022-08-17T02:18:13.102Z,18.54
2022-08-17T02:19:17.225Z,18.56
2022-08-17T02:20:42.159Z,18.56
2022-08-17T02:21:45.607Z,18.47
2022-08-17T02:22:49.587Z,18.56
2022-08-17T02:23:54.056Z,18.67
2022-08-17T02:25:00.522Z,18.77
2022-08-17T02:26:05.766Z,18.89
2022-08-17T02:27:08.755Z,18.81
2022-08-17T02:28:12.621Z,18.73
2022-08-17T02:29:16.155Z,18.88
2022-08-17T02:30:59.287Z,18.87
2022-08-17T02:31:43.712Z,18.71
2022-08-17T02:32:46.749Z,18.54
2022-08-17T02:34:00.422Z,18.45
2022-08-17T02:35:09.240Z,18.40
2022-08-17T02:36:13.861Z,18.33
2022-08-17T02:37:18.533Z,18.28
2022-08-17T02:38:21.790Z,18.25
2022-08-17T02:39:24.825Z,18.13
2022-08-17T02:40:36.434Z,18.23
2022-08-17T02:41:41.188Z,18.34
2022-08-17T02:42:45.502Z,18.41
2022-08-17T02:43:48.419Z,18.47
2022-08-17T02:44:51.281Z,18.48
2022-08-17T02:45:54.699Z,18.51
2022-08-17T02:46:57.678Z,18.48
2022-08-17T02:48:00.777Z,18.51
2022-08-17T02:49:05.275Z,18.48
2022-08-17T02:50:10.235Z,18.54
2022-08-17T02:51:13.836Z,18.57
2022-08-17T02:52:16.860Z,18.46
2022-08-17T02:53:39.822Z,18.42
2022-08-17T02:54:42.840Z,18.43
2022-08-17T02:55:45.877Z,18.36
2022-08-17T02:56:48.899Z,18.45
2022-08-17T02:57:52.993Z,18.59
2022-08-17T02:58:56.033Z,18.73
2022-08-17T02:59:58.979Z,18.70
2022-08-17T03:01:02.062Z,18.75
2022-08-17T03:02:07.697Z,18.83
2022-08-17T03:03:13.884Z,18.83
2022-08-17T03:04:17.030Z,18.72
2022-08-17T03:05:22.351Z,18.63
2022-08-17T03:06:25.615Z,18.55
2022-08-17T03:07:28.545Z,18.49
2022-08-17T03:08:32.805Z,18.46
2022-08-17T03:09:35.727Z,18.41
2022-08-17T03:10:38.978Z,18.26
2022-08-17T03:11:41.891Z,18.22
2022-08-17T03:12:46.076Z,18.20
2022-08-17T03:13:48.919Z,18.24
2022-08-17T03:14:54.850Z,18.25
2022-08-17T03:15:57.978Z,18.34
2022-08-17T03:17:01.489Z,18.44
2022-08-17T03:18:04.772Z,18.54
2022-08-17T03:19:07.807Z,18.50
2022-08-17T03:20:11.715Z,18.52
2022-08-17T03:21:14.702Z,18.50
2022-08-17T03:22:36.276Z,18.52
2022-08-17T03:23:42.394Z,18.38
2022-08-17T03:24:45.180Z,18.41
2022-08-17T03:25:48.081Z,18.47
2022-08-17T03:26:56.370Z,18.51
2022-08-17T03:27:59.845Z,18.50
2022-08-17T03:29:06.711Z,18.53
2022-08-17T03:30:13.348Z,18.49
2022-08-17T03:31:18.803Z,18.58
2022-08-17T03:32:21.765Z,18.55
2022-08-17T03:33:24.732Z,18.46
2022-08-17T03:34:27.762Z,18.39
2022-08-17T03:35:37.861Z,18.34
2022-08-17T03:36:40.865Z,18.36
2022-08-17T03:37:43.769Z,18.43
2022-08-17T03:38:46.881Z,18.36
2022-08-17T03:39:51.757Z,18.40
2022-08-17T03:40:57.338Z,18.41
2022-08-17T03:42:32.262Z,18.42
2022-08-17T03:43:39.703Z,18.45
2022-08-17T03:44:42.700Z,18.47
2022-08-17T03:46:04.206Z,18.46
2022-08-17T03:47:27.674Z,18.49
2022-08-17T03:48:50.310Z,18.58
2022-08-17T03:50:25.379Z,18.54
2022-08-17T03:51:46.852Z,18.63
2022-08-17T03:53:09.248Z,18.87
2022-08-17T03:54:30.889Z,18.88
2022-08-17T03:55:52.312Z,18.92
2022-08-17T03:57:10.704Z,19.00
2022-08-17T03:58:15.200Z,18.94
2022-08-17T03:59:23.360Z,18.84
2022-08-17T04:00:29.004Z,18.73
2022-08-17T04:01:32.303Z,18.81
2022-08-17T04:02:36.357Z,18.75
2022-08-17T04:03:39.314Z,18.81
2022-08-17T04:04:42.278Z,18.76
2022-08-17T04:05:45.210Z,18.80
2022-08-17T04:06:48.438Z,18.72
2022-08-17T04:07:52.083Z,18.69
2022-08-17T04:08:56.056Z,18.79
2022-08-17T04:09:59.713Z,18.77
2022-08-17T04:11:02.687Z,18.81
2022-08-17T04:12:06.158Z,18.78
2022-08-17T04:13:10.482Z,18.76
2022-08-17T04:14:13.386Z,18.69
2022-08-17T04:15:17.026Z,18.73
2022-08-17T04:16:20.352Z,18.78
2022-08-17T04:17:29.644Z,18.64
2022-08-17T04:18:43.332Z,18.64
2022-08-17T04:19:46.326Z,18.71
2022-08-17T04:20:49.617Z,18.73
2022-08-17T04:21:52.609Z,18.82
2022-08-17T04:23:28.637Z,18.90
2022-08-17T04:24:33.285Z,18.90
2022-08-17T04:25:38.737Z,18.91
2022-08-17T04:26:54.054Z,18.86
2022-08-17T04:28:02.109Z,18.80
2022-08-17T04:29:05.097Z,18.77
2022-08-17T04:30:08.823Z,18.72
2022-08-17T04:31:13.887Z,18.71
2022-08-17T04:32:19.597Z,18.71
2022-08-17T04:33:45.664Z,18.72
2022-08-17T04:34:48.591Z,18.78
2022-08-17T04:35:54.427Z,18.84
2022-08-17T04:36:57.580Z,18.91
2022-08-17T04:38:00.860Z,18.95
2022-08-17T04:39:04.480Z,19.00
2022-08-17T04:40:27.549Z,18.96
2022-08-17T04:41:49.411Z,18.84
2022-08-17T04:43:23.582Z,18.88
2022-08-17T04:44:36.823Z,18.89
2022-08-17T04:45:51.223Z,18.90
2022-08-17T04:46:59.640Z,18.92
2022-08-17T04:48:06.743Z,19.04
2022-08-17T04:49:11.597Z,19.07
2022-08-17T04:50:14.494Z,19.14
2022-08-17T04:51:28.310Z,19.11
2022-08-17T04:52:43.249Z,19.14
2022-08-17T04:53:54.618Z,19.03
2022-08-17T04:54:57.945Z,19.20
2022-08-17T04:56:01.166Z,19.19
2022-08-17T04:57:04.161Z,19.19
2022-08-17T04:58:08.034Z,19.14
2022-08-17T04:59:17.941Z,19.13
2022-08-17T05:00:21.559Z,19.14
2022-08-17T05:01:26.499Z,19.17
2022-08-17T05:02:29.460Z,19.19
2022-08-17T05:03:35.896Z,19.37
2022-08-17T05:04:42.066Z,19.41
2022-08-17T05:05:49.997Z,19.42
2022-08-17T05:06:54.732Z,19.48
2022-08-17T05:08:00.136Z,19.53
2022-08-17T05:09:03.741Z,19.58
2022-08-17T05:10:07.298Z,19.88
2022-08-17T05:11:10.824Z,19.96
2022-08-17T05:12:16.382Z,20.01
2022-08-17T05:13:23.140Z,20.06
2022-08-17T05:14:32.966Z,20.26
2022-08-17T05:15:44.888Z,20.30
2022-08-17T05:16:49.634Z,20.31
2022-08-17T05:17:52.599Z,20.35
2022-08-17T05:18:57.006Z,20.42
2022-08-17T05:19:59.850Z,20.48
2022-08-17T05:21:03.194Z,20.55
2022-08-17T05:22:06.733Z,20.62
2022-08-17T05:23:13.073Z,20.69
2022-08-17T05:24:38.545Z,20.70
2022-08-17T05:25:42.307Z,20.75
2022-08-17T05:26:50.230Z,20.85
2022-08-17T05:27:55.423Z,20.97
2022-08-17T05:29:00.440Z,21.07
2022-08-17T05:30:06.327Z,21.04
2022-08-17T05:31:09.565Z,21.24
2022-08-17T05:32:37.773Z,21.25
2022-08-17T05:33:46.296Z,21.25
2022-08-17T05:34:52.870Z,21.31
2022-08-17T05:35:58.696Z,21.57
2022-08-17T05:37:01.675Z,21.67
2022-08-17T05:38:05.776Z,21.70
2022-08-17T05:39:08.910Z,21.83
2022-08-17T05:40:26.742Z,21.76
2022-08-17T05:41:35.853Z,21.84
2022-08-17T05:42:38.849Z,21.88
2022-08-17T05:43:43.003Z,21.90
2022-08-17T05:44:45.934Z,21.89
2022-08-17T05:46:22.786Z,21.93
2022-08-17T05:47:27.174Z,21.95
2022-08-17T05:48:41.965Z,21.98
2022-08-17T05:49:44.925Z,22.01
2022-08-17T05:51:04.212Z,22.19
2022-08-17T05:52:40.367Z,22.24
2022-08-17T05:53:53.030Z,22.25
2022-08-17T05:55:14.366Z,22.41
2022-08-17T05:56:32.286Z,22.50
2022-08-17T05:57:39.883Z,22.64
2022-08-17T05:59:15.745Z,22.74
2022-08-17T06:00:36.394Z,22.84
2022-08-17T06:01:51.517Z,22.78
2022-08-17T06:03:12.899Z,22.98
2022-08-17T06:04:31.054Z,23.01
2022-08-17T06:05:55.975Z,23.18
2022-08-17T06:07:14.240Z,23.15
2022-08-17T06:08:46.288Z,23.16
2022-08-17T06:10:02.509Z,23.15
2022-08-17T06:11:19.780Z,23.15
2022-08-17T06:12:45.153Z,23.54
2022-08-17T06:13:53.420Z,23.53
2022-08-17T06:15:26.518Z,23.53
2022-08-17T06:16:41.387Z,23.52
2022-08-17T06:17:44.886Z,23.56
2022-08-17T06:19:02.739Z,23.59
2022-08-17T06:20:11.945Z,23.70
2022-08-17T06:21:18.530Z,23.76
2022-08-17T06:22:33.636Z,23.85
2022-08-17T06:23:51.034Z,23.99
2022-08-17T06:25:20.129Z,24.05
2022-08-17T06:26:37.332Z,24.24
2022-08-17T06:27:45.716Z,24.18
2022-08-17T06:29:08.208Z,24.36
2022-08-17T06:30:26.490Z,24.46
2022-08-17T06:31:35.184Z,24.42
2022-08-17T06:32:41.607Z,24.45
2022-08-17T06:33:47.716Z,24.61
2022-08-17T06:34:51.806Z,24.71
2022-08-17T06:36:06.188Z,24.88
2022-08-17T06:37:21.545Z,24.86
2022-08-17T06:38:54.676Z,24.83
2022-08-17T06:40:28.442Z,24.83
2022-08-17T06:41:38.170Z,24.74
2022-08-17T06:43:09.115Z,24.89
2022-08-17T06:44:43.312Z,25.06
2022-08-17T06:45:49.559Z,25.24
2022-08-17T06:47:02.602Z,25.33
2022-08-17T06:48:35.307Z,25.33
2022-08-17T06:50:19.443Z,25.27
2022-08-17T06:51:40.923Z,25.36
2022-08-17T06:52:54.267Z,25.46
2022-08-17T06:54:17.336Z,25.50
2022-08-17T06:55:28.082Z,25.46
2022-08-17T06:56:53.119Z,25.59
2022-08-17T06:58:05.895Z,25.65
2022-08-17T06:59:25.657Z,25.69
2022-08-17T07:00:33.870Z,25.73
2022-08-17T07:02:52.281Z,25.75
2022-08-17T07:04:14.040Z,25.79
2022-08-17T07:05:20.052Z,25.82
2022-08-17T07:06:27.424Z,25.89
2022-08-17T07:07:49.327Z,25.95
2022-08-17T07:08:58.423Z,26.00
2022-08-17T07:10:03.176Z,26.15
2022-08-17T07:11:14.562Z,26.13
2022-08-17T07:12:28.015Z,26.21
2022-08-17T07:13:54.147Z,26.27
2022-08-17T07:15:11.807Z,26.46
2022-08-17T07:16:25.701Z,26.29
2022-08-17T07:17:46.600Z,26.31
2022-08-17T07:18:53.363Z,26.31
2022-08-17T07:20:11.828Z,26.54
2022-08-17T07:21:37.200Z,26.59
2022-08-17T07:23:13.798Z,26.59
2022-08-17T07:24:37.537Z,26.58
2022-08-17T07:25:40.620Z,26.54
2022-08-17T07:26:43.503Z,26.59
2022-08-17T07:27:53.188Z,26.63
2022-08-17T07:28:57.591Z,26.78
2022-08-17T07:30:10.991Z,26.92
2022-08-17T07:31:17.732Z,26.97
2022-08-17T07:32:32.092Z,26.93
2022-08-17T07:33:37.066Z,26.96
2022-08-17T07:35:16.999Z,26.98
2022-08-17T07:36:29.819Z,27.04
2022-08-17T07:37:34.573Z,27.05
2022-08-17T07:38:59.762Z,27.10
2022-08-17T07:40:29.838Z,27.34
2022-08-17T07:41:59.102Z,27.41
2022-08-17T07:43:24.461Z,27.39
2022-08-17T07:44:27.661Z,27.64
2022-08-17T07:45:37.772Z,27.51
2022-08-17T07:47:17.946Z,27.32
2022-08-17T07:48:27.209Z,27.45
2022-08-17T07:49:37.318Z,27.40
2022-08-17T07:50:42.035Z,27.34
2022-08-17T07:51:52.720Z,27.45
2022-08-17T07:52:55.733Z,27.53
2022-08-17T07:54:22.659Z,27.46
2022-08-17T07:55:35.097Z,27.66
2022-08-17T07:57:26.624Z,27.88
2022-08-17T07:58:35.029Z,27.93
2022-08-17T07:59:43.312Z,28.13
2022-08-17T08:00:47.044Z,28.16
2022-08-17T08:02:01.146Z,28.29
2022-08-17T08:03:34.266Z,28.19
2022-08-17T08:05:02.136Z,28.22
2022-08-17T08:06:21.045Z,28.57
2022-08-17T08:07:25.740Z,28.61
2022-08-17T08:08:36.249Z,28.66
2022-08-17T08:09:47.424Z,28.65
2022-08-17T08:11:15.697Z,28.79
2022-08-17T08:12:42.606Z,28.86
2022-08-17T08:13:49.836Z,29.11
2022-08-17T08:14:58.268Z,29.06
2022-08-17T08:16:29.925Z,28.98
2022-08-17T08:17:38.449Z,29.15
2022-08-17T08:18:56.067Z,29.27
2022-08-17T08:20:01.255Z,29.30
2022-08-17T08:21:39.658Z,29.48
2022-08-17T08:22:45.927Z,29.54
2022-08-17T08:24:16.666Z,29.58
2022-08-17T08:25:25.643Z,29.65
2022-08-17T08:26:37.757Z,29.39
2022-08-17T08:27:57.675Z,29.26
2022-08-17T08:29:19.444Z,29.54
2022-08-17T08:30:22.875Z,29.75
2022-08-17T08:32:03.874Z,29.83
2022-08-17T08:33:20.459Z,29.90
2022-08-17T08:35:03.007Z,30.06
2022-08-17T08:36:11.815Z,30.10
2022-08-17T08:37:52.513Z,30.03
2022-08-17T08:38:56.857Z,29.97
2022-08-17T08:40:30.288Z,30.14
2022-08-17T08:41:54.903Z,29.74
2022-08-17T08:43:29.108Z,29.91
2022-08-17T08:45:00.853Z,29.77
2022-08-17T08:46:20.240Z,29.89
2022-08-17T08:47:42.100Z,29.92
2022-08-17T08:49:12.648Z,29.85
2022-08-17T08:50:52.545Z,30.27
2022-08-17T08:52:01.430Z,30.28
2022-08-17T08:53:16.179Z,30.20
2022-08-17T08:54:41.038Z,30.03
2022-08-17T08:56:02.804Z,30.00
2022-08-17T08:57:25.650Z,30.01
2022-08-17T08:58:42.079Z,30.30
2022-08-17T09:00:14.950Z,30.72
2022-08-17T09:01:28.246Z,30.70
2022-08-17T09:02:53.056Z,30.69
2022-08-17T09:04:25.011Z,30.86
2022-08-17T09:05:50.342Z,30.93
2022-08-17T09:07:15.762Z,30.57
2022-08-17T09:08:32.541Z,30.37
2022-08-17T09:09:49.952Z,30.74
2022-08-17T09:11:16.821Z,30.59
2022-08-17T09:12:55.238Z,30.94
2022-08-17T09:14:07.221Z,30.79
2022-08-17T09:15:35.179Z,30.71
2022-08-17T09:16:47.345Z,30.89
2022-08-17T09:18:59.121Z,31.21
2022-08-17T09:19:50.872Z,31.15
2022-08-17T09:21:01.838Z,30.96
2022-08-17T09:22:32.664Z,31.04
2022-08-17T09:23:35.510Z,31.16
2022-08-17T09:24:46.848Z,31.60
2022-08-17T09:25:56.441Z,31.58
2022-08-17T09:27:31.052Z,31.14
2022-08-17T09:28:39.034Z,30.69
2022-08-17T09:29:49.355Z,31.24
2022-08-17T09:30:56.509Z,31.54
2022-08-17T09:32:04.024Z,31.87
2022-08-17T09:33:09.416Z,31.10
2022-08-17T09:34:17.454Z,31.11
2022-08-17T09:35:36.588Z,31.43
2022-08-17T09:37:11.201Z,31.50
2022-08-17T09:38:23.161Z,31.72
2022-08-17T09:39:36.721Z,31.50
2022-08-17T09:41:01.932Z,31.23
2022-08-17T09:42:10.926Z,31.56
2022-08-17T09:43:32.194Z,31.69
2022-08-17T09:44:49.474Z,31.46
2022-08-17T09:45:58.207Z,31.67
2022-08-17T09:48:02.806Z,31.88
2022-08-17T09:49:43.101Z,31.98
2022-08-17T09:51:21.976Z,32.16
2022-08-17T09:52:28.772Z,31.96
2022-08-17T09:53:32.299Z,32.22
2022-08-17T09:54:40.530Z,32.31
2022-08-17T09:56:10.195Z,32.15
2022-08-17T09:57:33.531Z,31.99
2022-08-17T09:59:17.176Z,32.05
2022-08-17T10:00:37.488Z,32.44
2022-08-17T10:01:57.553Z,32.42
2022-08-17T10:03:38.973Z,32.35
2022-08-17T10:04:54.758Z,32.03
2022-08-17T10:06:24.812Z,31.78
2022-08-17T10:07:57.494Z,31.80
2022-08-17T10:09:35.768Z,32.42
2022-08-17T10:10:52.265Z,32.49
2022-08-17T10:12:30.135Z,32.14
2022-08-17T10:13:54.259Z,32.18
2022-08-17T10:15:17.371Z,32.43
2022-08-17T10:16:52.455Z,32.58
2022-08-17T10:18:20.230Z,32.57
2022-08-17T10:19:40.088Z,32.26
2022-08-17T10:21:19.276Z,32.32
2022-08-17T10:22:53.224Z,32.69
2022-08-17T10:24:28.194Z,32.88
2022-08-17T10:25:55.753Z,33.20
2022-08-17T10:27:02.064Z,32.98
2022-08-17T10:28:12.949Z,32.78
2022-08-17T10:29:46.222Z,33.15
2022-08-17T10:31:16.595Z,33.24
2022-08-17T10:32:34.380Z,32.82
2022-08-17T10:33:57.997Z,32.62
2022-08-17T10:35:34.301Z,32.51
2022-08-17T10:37:00.397Z,32.49
2022-08-17T10:38:34.169Z,33.13
2022-08-17T10:39:52.569Z,33.34
2022-08-17T10:41:40.317Z,33.54
2022-08-17T10:43:12.951Z,32.93
2022-08-17T10:44:48.643Z,32.81
2022-08-17T10:46:30.950Z,32.71
2022-08-17T10:48:06.283Z,33.06
2022-08-17T10:49:18.505Z,33.24
2022-08-17T10:50:56.338Z,33.56
2022-08-17T10:52:20.539Z,33.77
2022-08-17T10:53:32.629Z,33.85
2022-08-17T10:55:09.241Z,33.73
2022-08-17T10:56:15.926Z,33.22
2022-08-17T10:57:27.524Z,32.97
2022-08-17T10:58:46.268Z,33.02
2022-08-17T10:59:51.766Z,33.46
2022-08-17T11:00:54.603Z,33.84
2022-08-17T11:02:18.652Z,33.57
2022-08-17T11:03:24.979Z,33.66
2022-08-17T11:04:37.078Z,33.42
2022-08-17T11:06:22.919Z,33.30
2022-08-17T11:07:58.999Z,33.34
2022-08-17T11:09:44.133Z,32.90
2022-08-17T11:10:55.027Z,33.39
2022-08-17T11:12:38.811Z,33.83
2022-08-17T11:14:07.107Z,33.93
2022-08-17T11:15:20.192Z,33.99
2022-08-17T11:16:42.007Z,33.27
2022-08-17T11:17:50.510Z,32.90
2022-08-17T11:18:53.799Z,32.52
2022-08-17T11:20:14.826Z,32.82
2022-08-17T11:21:43.987Z,32.46
2022-08-17T11:23:18.639Z,32.33
2022-08-17T11:24:43.443Z,32.23
2022-08-17T11:25:55.755Z,32.16
2022-08-17T11:27:14.142Z,31.82
2022-08-17T11:28:34.680Z,31.54
2022-08-17T11:30:02.246Z,31.08
2022-08-17T11:31:38.561Z,31.05
2022-08-17T11:32:54.689Z,30.98
2022-08-17T11:34:04.876Z,30.77
2022-08-17T11:35:14.945Z,30.89
2022-08-17T11:36:34.499Z,31.02
2022-08-17T11:37:53.311Z,31.39
2022-08-17T11:39:23.208Z,31.52
2022-08-17T11:40:54.238Z,31.59
2022-08-17T11:42:06.720Z,31.40
2022-08-17T11:43:27.670Z,31.28
2022-08-17T11:44:52.772Z,31.36
2022-08-17T11:46:14.018Z,31.46
2022-08-17T11:48:26.735Z,31.72
2022-08-17T11:50:00.424Z,31.89
2022-08-17T11:51:28.375Z,32.10
2022-08-17T11:52:45.953Z,31.95
2022-08-17T11:53:50.285Z,32.38
2022-08-17T11:54:53.171Z,32.38
2022-08-17T11:55:59.111Z,32.60
2022-08-17T11:57:28.163Z,32.62
2022-08-17T11:58:38.768Z,32.69
2022-08-17T11:59:46.283Z,32.76
2022-08-17T12:01:02.146Z,32.81
2022-08-17T12:02:20.190Z,33.12
2022-08-17T12:03:53.940Z,33.46
2022-08-17T12:05:21.489Z,33.20
2022-08-17T12:06:30.371Z,33.55
2022-08-17T12:07:41.944Z,33.76
2022-08-17T12:08:55.338Z,33.97
2022-08-17T12:10:00.781Z,33.99
2022-08-17T12:11:10.222Z,33.78
2022-08-17T12:12:20.423Z,33.69
2022-08-17T12:13:30.613Z,33.42
2022-08-17T12:15:11.505Z,33.35
2022-08-17T12:16:19.771Z,32.42
2022-08-17T12:17:39.237Z,32.80
2022-08-17T12:18:59.558Z,32.32
2022-08-17T12:20:15.823Z,31.50
2022-08-17T12:21:23.454Z,31.86
2022-08-17T12:22:44.558Z,31.66
2022-08-17T12:23:51.997Z,31.52
2022-08-17T12:24:55.909Z,31.57
2022-08-17T12:26:19.679Z,31.51
2022-08-17T12:28:05.521Z,31.64
2022-08-17T12:29:35.889Z,31.99
2022-08-17T12:30:41.582Z,32.35
2022-08-17T12:31:47.735Z,32.67
2022-08-17T12:32:51.300Z,32.57
2022-08-17T12:33:54.899Z,32.82
2022-08-17T12:34:57.926Z,33.22
2022-08-17T12:36:07.759Z,33.45
2022-08-17T12:37:18.865Z,33.54
2022-08-17T12:38:32.545Z,33.49
2022-08-17T12:39:39.170Z,33.43
2022-08-17T12:40:55.438Z,33.23
2022-08-17T12:42:02.824Z,33.64
2022-08-17T12:43:08.820Z,33.61
2022-08-17T12:44:12.459Z,33.41
2022-08-17T12:45:29.623Z,33.79
2022-08-17T12:46:46.777Z,33.61
2022-08-17T12:48:04.630Z,32.95
2022-08-17T12:49:16.388Z,32.95
2022-08-17T12:50:29.159Z,33.38
2022-08-17T12:51:34.427Z,33.24
2022-08-17T12:52:40.590Z,33.60
2022-08-17T12:53:53.367Z,33.71
2022-08-17T12:55:06.505Z,34.08
2022-08-17T12:56:13.931Z,34.32
2022-08-17T12:57:46.518Z,34.54
2022-08-17T12:58:56.562Z,34.66
2022-08-17T13:00:11.142Z,34.41
2022-08-17T13:01:17.069Z,34.48
2022-08-17T13:02:28.631Z,34.24
2022-08-17T13:03:43.118Z,33.90
2022-08-17T13:04:46.618Z,33.23
2022-08-17T13:06:09.201Z,33.78
2022-08-17T13:07:14.631Z,33.67
2022-08-17T13:08:29.115Z,33.45
2022-08-17T13:09:40.123Z,33.32
2022-08-17T13:10:53.601Z,33.63
2022-08-17T13:12:00.530Z,34.04
2022-08-17T13:13:17.875Z,33.83
2022-08-17T13:14:22.299Z,34.03
2022-08-17T13:15:32.463Z,34.37
2022-08-17T13:16:36.617Z,34.47
2022-08-17T13:17:56.826Z,34.47
2022-08-17T13:19:19.062Z,34.19
2022-08-17T13:20:54.797Z,34.78
2022-08-17T13:22:01.540Z,34.56
2022-08-17T13:23:12.640Z,34.29
2022-08-17T13:24:17.107Z,33.78
2022-08-17T13:25:20.043Z,33.73
2022-08-17T13:26:29.828Z,33.92
2022-08-17T13:27:34.218Z,33.96
2022-08-17T13:28:38.341Z,34.05
2022-08-17T13:29:53.984Z,34.01
2022-08-17T13:31:21.557Z,34.28
2022-08-17T13:32:37.729Z,33.89
2022-08-17T13:33:45.087Z,34.21
2022-08-17T13:35:14.993Z,33.94
2022-08-17T13:36:33.724Z,33.96
2022-08-17T13:37:37.714Z,34.44
2022-08-17T13:38:49.817Z,34.21
2022-08-17T13:40:14.226Z,34.10
2022-08-17T13:41:33.910Z,34.18
2022-08-17T13:42:51.968Z,34.06
2022-08-17T13:43:56.264Z,33.39
2022-08-17T13:45:00.426Z,33.59
2022-08-17T13:46:34.342Z,33.99
2022-08-17T13:47:37.295Z,34.16
2022-08-17T13:48:42.259Z,34.32
2022-08-17T13:49:49.467Z,34.19
2022-08-17T13:50:55.518Z,34.01
2022-08-17T13:51:58.960Z,34.23
2022-08-17T13:53:18.620Z,34.07
2022-08-17T13:54:34.659Z,34.19
2022-08-17T13:55:37.844Z,34.54
2022-08-17T13:56:50.330Z,34.78
2022-08-17T13:58:04.211Z,34.41
2022-08-17T13:59:15.962Z,34.26
2022-08-17T14:00:37.283Z,34.16
2022-08-17T14:01:52.833Z,34.13
2022-08-17T14:02:58.563Z,34.02
2022-08-17T14:04:28.210Z,33.96
2022-08-17T14:05:32.600Z,33.99
2022-08-17T14:06:52.203Z,33.97
2022-08-17T14:08:06.616Z,34.11
2022-08-17T14:09:10.264Z,34.06
2022-08-17T14:10:17.687Z,33.77
2022-08-17T14:11:22.546Z,33.80
2022-08-17T14:12:27.924Z,33.86
2022-08-17T14:13:32.454Z,33.81
2022-08-17T14:14:35.485Z,34.18
2022-08-17T14:15:54.562Z,33.76
2022-08-17T14:16:59.511Z,33.64
2022-08-17T14:18:02.538Z,34.11
2022-08-17T14:19:06.267Z,33.99
2022-08-17T14:20:12.542Z,34.08
2022-08-17T14:21:15.532Z,34.23
2022-08-17T14:22:27.256Z,34.11
2022-08-17T14:23:32.239Z,34.49
2022-08-17T14:24:44.494Z,34.34
2022-08-17T14:25:48.141Z,33.88
2022-08-17T14:26:55.030Z,33.61
2022-08-17T14:27:58.366Z,33.91
2022-08-17T14:29:02.038Z,34.09
2022-08-17T14:30:08.295Z,33.84
2022-08-17T14:31:12.111Z,33.99
2022-08-17T14:32:22.265Z,34.00
2022-08-17T14:33:25.271Z,34.19
2022-08-17T14:34:28.209Z,34.17
2022-08-17T14:35:31.135Z,34.19
2022-08-17T14:36:34.492Z,33.77
2022-08-17T14:37:37.980Z,33.50
2022-08-17T14:38:41.128Z,33.56
2022-08-17T14:39:44.320Z,33.79
2022-08-17T14:40:49.446Z,33.56
2022-08-17T14:41:53.297Z,33.14
2022-08-17T14:42:57.918Z,33.15
2022-08-17T14:44:00.841Z,33.38
2022-08-17T14:45:06.380Z,33.31
2022-08-17T14:46:29.361Z,33.48
2022-08-17T14:47:37.150Z,33.50
2022-08-17T14:48:41.201Z,33.76
2022-08-17T14:49:47.718Z,33.65
2022-08-17T14:50:50.850Z,33.72
2022-08-17T14:51:54.213Z,33.69
2022-08-17T14:52:58.123Z,33.82
2022-08-17T14:54:02.494Z,33.82
2022-08-17T14:55:06.837Z,33.28
2022-08-17T14:56:09.817Z,33.23
2022-08-17T14:57:33.179Z,33.12
2022-08-17T14:58:37.159Z,33.06
2022-08-17T14:59:41.579Z,32.94
2022-08-17T15:00:44.635Z,33.01
2022-08-17T15:01:48.300Z,32.86
2022-08-17T15:02:57.043Z,32.65
2022-08-17T15:04:01.204Z,32.97
2022-08-17T15:05:08.574Z,32.70
2022-08-17T15:06:14.965Z,32.90
2022-08-17T15:07:20.296Z,32.96
2022-08-17T15:08:30.660Z,32.78
2022-08-17T15:09:35.765Z,32.90
2022-08-17T15:10:39.811Z,32.91
2022-08-17T15:11:43.406Z,32.83
2022-08-17T15:12:46.584Z,32.75
2022-08-17T15:13:53.096Z,32.71
2022-08-17T15:14:57.322Z,32.78
2022-08-17T15:16:04.074Z,33.03
2022-08-17T15:17:07.228Z,32.87
2022-08-17T15:18:10.804Z,32.73
2022-08-17T15:19:20.033Z,32.78
2022-08-17T15:20:27.808Z,32.89
2022-08-17T15:21:31.313Z,32.88
2022-08-17T15:22:34.307Z,32.94
2022-08-17T15:23:41.037Z,32.89
2022-08-17T15:24:46.710Z,32.88
2022-08-17T15:25:52.806Z,32.90
2022-08-17T15:26:56.026Z,32.92
2022-08-17T15:28:00.702Z,32.81
2022-08-17T15:29:04.153Z,32.79
2022-08-17T15:30:08.293Z,32.77
2022-08-17T15:31:11.860Z,32.79
2022-08-17T15:32:29.953Z,32.74
2022-08-17T15:33:33.387Z,32.51
2022-08-17T15:34:36.863Z,32.37
2022-08-17T15:35:40.922Z,32.23
2022-08-17T15:36:49.426Z,32.44
2022-08-17T15:37:53.175Z,32.57
2022-08-17T15:38:58.971Z,32.44